LGTS - Thessaloniki/Mik, Greece
Distance from station: 15km
: 06/12/2023 15:20
Mostly Cloudy
Mostly Cloudy

: 9 km/h
: 13°C
: 10°C
: 82%
: 1010 hPa
Clouds: Mostly Cloudy
Visibility: 10 km
Cloud details: Few Clouds 152 m
Few Clouds 610 m
Mostly Cloudy 762 m
2023/12/06 13:20 LGTS 061320Z 19005KT 9999 FEW005 FEW020TCU BKN025 13/10 Q1010 NOSIG
LGKZ - Kozani (civ/Army, Greece
Distance from station: 113km
: 06/12/2023 15:20

   varies
: varies 6 km/h
: 10°C
: 7°C
: 82%
: 1009 hPa
2023/12/06 13:20 LGKZ 061320Z AUTO VRB03KT //// // ////// 10/07 Q1009 RE//
 
LGKV - Kavala/Chrisoupo, Greece
Distance from station: 132km
: 06/12/2023 15:20
 ,
,

: 7 km/h
: 10°C
Wind Chill: 9°C
: 6°C
: 76%
: 1010 hPa
: Light Rain
Clouds:
Visibility: 10 km
Cloud details: Few Clouds 366 m
Mostly Cloudy 762 m
2438 m
2023/12/06 13:20 LGKV 061320Z 01004KT 9999 -RA FEW012 BKN025 OVC080 10/06 Q1010
LGBL - Nea Anchialos, Greece
Distance from station: 156km
: 06/12/2023 15:20
Few Clouds
Few Clouds

: 20 km/h
: 16°C
: 11°C
: 72%
: 1008 hPa
Clouds: Few Clouds
Visibility: 10 km
Cloud details: Few Clouds 457 m
2023/12/06 13:20 LGBL 061320Z 29011KT 9999 FEW015 16/11 Q1008
 
LGSK - Skiathos Island, Greece
Distance from station: 161km
: 06/12/2023 10:50
NOT Current
Mostly Cloudy
Mostly Cloudy

: 4 km/h
: 13°C
: 11°C
: 88%
: 1008 hPa
Clouds: Mostly Cloudy
Visibility: 10 km
Cloud details: Partly Cloudy 305 m
Few Clouds 549 m
Mostly Cloudy 762 m
2023/12/06 08:50 LGSK 060850Z 32002KT 9999 SCT010 FEW018TCU BKN025 13/11 Q1008
LWSK - Skopje/Petrovac, Macedonia
Distance from station: 195km
: 06/12/2023 15:00


: 2 km/h
: 8°C
: 6°C
: 87%
: 1010 hPa
Clouds:
Visibility: 8 km
Cloud details: Mostly Cloudy 305 m
1006 m
2023/12/06 13:00 LWSK 061300Z 28001KT 8000 BKN010 OVC033 08/06 Q1010 NOSIG
 
LGLM - Limnos Island Ar, Greece
Distance from station: 196km
: 06/12/2023 15:20
Mostly Cloudy
Mostly Cloudy

: 17 km/h
: 13°C
: 11°C
: 88%
: 1007 hPa
Clouds: Mostly Cloudy
Visibility: 10 km
Cloud details: Few Clouds 274 m
Mostly Cloudy 610 m
2023/12/06 13:20 LGLM 061320Z 05009KT 9999 FEW009 BKN020 13/11 Q1007
LWOH - Ohrid, Macedonia
Distance from station: 202km
: 06/12/2023 15:30
Partly Cloudy
Partly Cloudy

: 17 km/h
: 10°C
Wind Chill: 8°C
: 5°C
: 71%
: 1009 hPa
Clouds: Partly Cloudy
Visibility: 10 km
Cloud details: Partly Cloudy 457 m
Partly Cloudy 1006 m
2023/12/06 13:30 LWOH 061330Z 16009KT 9999 SCT015 SCT033 10/05 Q1009
 
LGSY - Skiros, Greece
Distance from station: 217km
: 06/12/2023 14:50
Partly Cloudy
Partly Cloudy

: 31 km/h
: 16°C
: 11°C
: 72%
: 1007 hPa
Clouds: Partly Cloudy
Visibility: 10 km
Cloud details: Few Clouds 305 m
Partly Cloudy 549 m
2023/12/06 12:50 LGSY 061250Z 28017KT 9999 FEW010 SCT018 16/11 Q1007 RMK SCT080 FEW180 BLU
LGIO - Ioannina, Greece
Distance from station: 218km
: 06/12/2023 15:20

   varies
: varies 6 km/h
: 12°C
: 6°C
: 67%
: 1010 hPa
2023/12/06 13:20 LGIO 061320Z AUTO VRB03KT //// // ////// 12/06 Q1010 RE//
 
LBPD - Plovdiv, Bulgaria
Distance from station: 222km
: 06/12/2023 15:00


: 7 km/h
: 6°C
Wind Chill: 4°C
: 5°C
: 93%
: 1012 hPa
Clouds:
Visibility: 10 km
Cloud details: Partly Cloudy 274 m
Mostly Cloudy 396 m
945 m
2023/12/06 13:00 LBPD 061300Z AUTO 31004KT 9999 SCT009/// BKN013/// OVC031/// 06/05 Q1012 NOSIG
LBSF - Sofia (observato, Bulgaria
Distance from station: 229km
: 06/12/2023 15:00
 ,
,

: 13 km/h
: 5°C
Wind Chill: 2°C
: 3°C
: 87%
: 1010 hPa
: Light Rain
Clouds:
Visibility: 10 km
Cloud details: Partly Cloudy 823 m
975 m
2023/12/06 13:00 LBSF 061300Z 13007KT 9999 -RA SCT027 OVC032 05/03 Q1010 NOSIG
 
LGAL - Alexandroupolis, Greece
Distance from station: 242km
: 06/12/2023 15:20
Partly Cloudy
Partly Cloudy

: 17 km/h
: 11°C
: 8°C
: 82%
: 1010 hPa
Clouds: Partly Cloudy
Visibility: 10 km
Cloud details: Partly Cloudy 762 m
2023/12/06 13:20 LGAL 061320Z 05009KT 9999 SCT025 11/08 Q1010
LGPZ - Preveza/Aktion, Greece
Distance from station: 274km
: 06/12/2023 15:20
Few Clouds
Few Clouds
   calm
:
: 16°C
: 10°C
: 68%
: 1010 hPa
Clouds: Few Clouds
Visibility: 10 km
Cloud details: Few Clouds 549 m
2023/12/06 13:20 LGPZ 061320Z 00000KT 9999 FEW018 16/10 Q1010
 
BKPR - Prishtina, Yugoslavia
Distance from station: 280km
: 06/12/2023 15:30
Mostly Cloudy
Mostly Cloudy

: 7 km/h
: 8°C
Wind Chill: 7°C
: 4°C
: 76%
: 1008 hPa
Clouds: Mostly Cloudy
Visibility: 10 km
Cloud details: Partly Cloudy 1219 m
Mostly Cloudy 2743 m
2023/12/06 13:30 BKPR 061330Z 32004KT 9999 SCT040 BKN090 08/04 Q1008 NOSIG
LGEL - Elefsis (hel-Afb, Greece
Distance from station: 284km
: 06/12/2023 15:20
Few Clouds
Few Clouds

: 11 km/h
: 18°C
: 7°C
: 49%
: 1008 hPa
Clouds: Few Clouds
Visibility: 10 km
Cloud details: Few Clouds 914 m
2023/12/06 13:20 LGEL 061320Z 30006KT 9999 FEW030 18/07 Q1008
 
LATI - Tirana, Albania
Distance from station: 291km
: 06/12/2023 15:20
 ,
,

: 11 km/h
: 11°C
: 10°C
: 94%
: 1010 hPa
: Light Rain
Clouds:
Visibility: 10 km
Cloud details: Few Clouds 213 m
Few Clouds 762 m
914 m
2023/12/06 13:20 LATI 061320Z 14006KT 9999 -RA FEW007 FEW025TCU OVC030 11/10 Q1010 NOSIG
LGKR - Ioannis Kapodist, Greece
Distance from station: 292km
: 06/12/2023 15:20
Partly Cloudy
Partly Cloudy

: 9 km/h
: 17°C
: 9°C
: 59%
: 1009 hPa
Clouds: Partly Cloudy
Visibility: 10 km
Cloud details: Partly Cloudy 549 m
2023/12/06 13:20 LGKR 061320Z 32005KT 9999 SCT018TCU 17/09 Q1009 NOSIG